Aéroport international Pierre-Elliott-Trudeau de Montréal

CYUL

27. Juni 2022

Uhrzeit Code Wetter Temp. Sichtweite Wolkendecke Wind METAR/SPECI
10:00 am
V
72 °F 15 mi 24.000 ft 260° 260° 15 - 23 kt METAR CYUL 271400Z 26015G23KT 15SM FEW018TCU BKN240 22/18 A2978 RMK TCU2CC4 SLP086 DENSITY ALT 1200FT
9:05 am
V
73 °F 15 mi 4.000 ft 270° 270° 12 - 18 kt METAR CYUL 271305Z 27012G18KT 15SM SCT015 BKN040 BKN120 OVC250 23/20 A2976 RMK SF3SC4ACC1CI1 ACC TR SLP081 DENSITY ALT 1300FT
8:51 am
M
72 °F 15 mi 1.400 ft 260° 260° 11 - 17 kt METAR CYUL 271251Z 26011G17KT 15SM BKN014 OVC044 22/20 A2976 RMK SF5SC3 SLP081 DENSITY ALT 1200FT
8:00 am
I
72 °F 15 mi 700 ft 250° 250° 12 kt METAR CYUL 271200Z 25012KT 15SM BKN007 OVC080 22/21 A2975 RMK SF5AC3 SLP077 DENSITY ALT 1200FT
7:50 am
V
72 °F 15 mi 8.000 ft 250° 250° 8 kt METAR CYUL 271150Z 25008KT 15SM SCT007 OVC080 22/21 A2975 RMK SF6AC2 SLP075 DENSITY ALT 1200FT
7:37 am
V
72 °F 10 mi 4.000 ft 260° 260° 7 kt METAR CYUL 271137Z 26007KT 10SM -DZ SCT010 BKN040 OVC080 22/21 A2974 RMK SF3SC4AC1 SLP073 DENSITY ALT 1200FT
7:00 am
I
72 °F 10 mi 900 ft 260° 260° 6 kt METAR CYUL 271100Z 26006KT 10SM -DZ OVC009 22/21 A2974 RMK ST8 SLP074 DENSITY ALT 1200FT
6:00 am
I
72 °F 6 mi 900 ft 240° 240° 4 kt METAR CYUL 271000Z 24004KT 6SM -DZ BR BKN009 OVC040 22/21 A2973 RMK ST7SC1 SLP070 DENSITY ALT 1200FT
5:13 am
I
72 °F 10 mi 800 ft Var 000° 0 kt METAR CYUL 270913Z 00000KT 10SM -DZ BKN008 OVC058 22/21 A2973 RMK ST5SC3 SLP068 DENSITY ALT 1200FT
5:00 am
I
70 °F 10 mi 800 ft Var 000° 0 kt METAR CYUL 270900Z 00000KT 10SM BKN008 OVC025 21/21 A2973 RMK ST6SC2 SLP069 DENSITY ALT 1100FT
4:43 am
I
72 °F 10 mi 800 ft 290° 290° 4 kt METAR CYUL 270843Z 29004KT 10SM BKN008 OVC025 22/21 A2973 RMK SF7SC1 SLP071 DENSITY ALT 1200FT
4:24 am
M
72 °F 15 mi 1.500 ft Var 000° 0 kt METAR CYUL 270824Z 00000KT 15SM BKN015 OVC025 22/21 A2973 RMK SF6SC2 SLP070 DENSITY ALT 1200FT
4:00 am
V
72 °F 15 mi 3.800 ft 120° 120° 2 kt METAR CYUL 270800Z 12002KT 15SM FEW016 BKN038 OVC120 22/21 A2974 RMK CF1ST7AC1 SLP072 DENSITY ALT 1200FT
3:00 am
V
70 °F 15 mi 4.000 ft 130° 130° 2 kt METAR CYUL 270700Z 13002KT 15SM BKN040 BKN110 21/20 A2976 RMK ST7AC1 SLP080 DENSITY ALT 1100FT
2:00 am
V
70 °F 15 mi 3.800 ft 190° 190° 4 kt METAR CYUL 270600Z 19004KT 15SM OVC038 21/20 A2979 RMK ST8 SLP088 DENSITY ALT 1100FT
1:00 am
V
70 °F 15 mi 10.000 ft 210° 210° 6 kt METAR CYUL 270500Z 21006KT 15SM SCT070 OVC100 21/20 A2979 RMK AC3AC5 SLP089 DENSITY ALT 1100FT
12:22 am
V
70 °F 15 mi 8.800 ft 200° 200° 7 kt METAR CYUL 270422Z 20007KT 15SM OVC088 21/20 A2980 RMK AC8 SLP093 DENSITY ALT 1000FT
12:00 am
V
70 °F 8 mi 9.500 ft 210° 210° 6 kt METAR CYUL 270400Z CCA 21006KT 8SM -RA FEW060 BKN095 OVC110 21/20 A2981 RMK SC2AC4AC2 SLP096 DENSITY ALT 1000FT

26. Juni 2022

Uhrzeit Code Wetter Temp. Sichtweite Wolkendecke Wind METAR/SPECI
11:00 pm
V
70 °F 8 mi 6.500 ft 230° 230° 9 kt METAR CYUL 270300Z 23009KT 8SM -RA BKN065 OVC100 21/20 A2984 RMK SC7AC1 SLP108 DENSITY ALT 1000FT
10:00 pm
V
73 °F 10 mi 6.200 ft 220° 220° 8 kt METAR CYUL 270200Z 22008KT 10SM BKN062 OVC090 23/18 A2985 RMK SC6AC2 PRESRR SLP111 DENSITY ALT 1200FT
9:23 pm
V
75 °F 10 mi 9.400 ft 210° 210° 10 kt METAR CYUL 270123Z 21010KT 10SM -RA FEW070 BKN094 OVC110 24/17 A2983 RMK AC1AC6AC1 WSHFT 0109 PRESRR SLP104 DENSITY ALT 1300FT
9:00 pm
V
75 °F 15 mi 9.500 ft 270° 270° 3 kt METAR CYUL 270100Z 27003KT 210V280 15SM -SHRA FEW075 BKN095 OVC110 24/17 A2982 RMK AC1AC7AC1 AC TR CVCVTV CLD EMBD SLP099 DENSITY ALT 1300FT
8:00 pm
V
79 °F 30 mi 14.000 ft 270° 270° 12 kt METAR CYUL 270000Z 27012KT 30SM -SHRA FEW080 FEW110 OVC140 26/16 A2983 RMK AC1AC2AC6 AC TR SLP104 DENSITY ALT 1600FT
7:44 pm
V
82 °F 30 mi 14.000 ft 270° 270° 12 - 20 kt METAR CYUL 262344Z 27012G20KT 30SM -SHRA FEW080 FEW110 OVC140 28/15 A2983 RMK AC1AC1AC8 AC TR AC TR CVCTV CLD EMBD SLP103 DENSITY ALT 1700FT
7:00 pm
V
86 °F 30 mi 14.000 ft 250° 250° 10 - 16 kt METAR CYUL 262300Z 25010G16KT 30SM SCT085 BKN140 OVC250 30/18 A2983 RMK AC4AC3CI1 SLP102 DENSITY ALT 2000FT
6:00 pm
V
86 °F 30 mi 18.000 ft 170° 170° 8 kt METAR CYUL 262200Z 17008KT 30SM FEW085 BKN180 OVC250 30/20 A2982 RMK AC1AC6CI1 SLP101 DENSITY ALT 2100FT
5:00 pm
V
88 °F 30 mi 20.000 ft 160° 160° 12 kt METAR CYUL 262100Z 16012KT 30SM FEW075TCU BKN200 OVC250 31/19 A2984 RMK TCU1CC7CI1 TCU TR SLP106 DENSITY ALT 2100FT
4:00 pm
V
88 °F 30 mi 25.000 ft 160° 160° 10 kt METAR CYUL 262000Z 16010KT 30SM FEW070TCU SCT200 BKN250 31/20 A2986 RMK TCU2CC1CI4 SLP112 DENSITY ALT 2100FT
3:00 pm
V
88 °F 15 mi 21.000 ft 170° 170° 10 kt METAR CYUL 261900Z 17010KT 090V190 15SM FEW060TCU BKN210 BKN250 31/20 A2988 RMK TCU1CC5CI1 SLP119 DENSITY ALT 2100FT
2:00 pm
V
88 °F 30 mi 25.000 ft 160° 160° 8 kt METAR CYUL 261800Z 16008KT 100V190 30SM FEW048TCU SCT180 BKN250 31/22 A2990 RMK TCU2AC2CC1 SLP127 DENSITY ALT 2100FT
1:00 pm
V
88 °F 30 mi - 200° 200° 5 kt METAR CYUL 261700Z 20005KT 170V240 30SM FEW055TCU SCT220 SCT250 31/20 A2993 RMK TCU1CC2CI1 SLP136 DENSITY ALT 2000FT
12:00 pm
V
86 °F 30 mi - 200° 200° 8 kt METAR CYUL 261600Z 20008KT 170V240 30SM FEW050TCU FEW220 FEW250 30/21 A2995 RMK TCU1CC1CI1 TCU TR CC TR SLP145 DENSITY ALT 1900FT
11:00 am
V
84 °F 30 mi - 160° 160° 9 kt METAR CYUL 261500Z 16009KT 120V200 30SM FEW045TCU FEW250 29/20 A2997 RMK TCU1CI1 TCU TR SLP151 DENSITY ALT 1800FT
10:00 am
V
82 °F 30 mi - 170° 170° 7 kt METAR CYUL 261400Z 17007KT 110V180 30SM SCT250 28/20 A2999 RMK CI4 SLP157 DENSITY ALT 1600FT
9:00 am
V
79 °F 15 mi - 120° 120° 5 kt METAR CYUL 261300Z 12005KT 090V150 15SM FEW120 SCT250 26/19 A3001 RMK AC1CI4 AC TR SLP164 DENSITY ALT 1400FT
8:00 am
V
75 °F 30 mi - 140° 140° 3 kt METAR CYUL 261200Z 14003KT 120V190 30SM SCT250 24/19 A3003 RMK CI3 SLP170 DENSITY ALT 1100FT
7:00 am
V
72 °F 30 mi 25.000 ft 130° 130° 5 kt METAR CYUL 261100Z 13005KT 30SM BKN250 22/19 A3003 RMK CI5 SLP170 DENSITY ALT 900FT
6:00 am
V
70 °F 30 mi - 110° 110° 5 kt METAR CYUL 261000Z 11005KT 30SM SCT250 21/19 A3002 RMK CI3 SLP169 DENSITY ALT 800FT
5:00 am
V
70 °F 15 mi - 100° 100° 2 kt METAR CYUL 260900Z 10002KT 15SM SCT250 21/18 A3003 RMK CI3 SLP171 DENSITY ALT 700FT
4:00 am
V
70 °F 15 mi - 130° 130° 4 kt METAR CYUL 260800Z 13004KT 15SM FEW250 21/18 A3003 RMK CI1 CI TR SLP171 DENSITY ALT 800FT
3:00 am
V
70 °F 15 mi - Var 000° 0 kt METAR CYUL 260700Z 00000KT 15SM FEW250 21/18 A3004 RMK CI1 SLP174 DENSITY ALT 800FT
2:00 am
V
72 °F 15 mi - Var 000° 0 kt METAR CYUL 260600Z 00000KT 15SM FEW250 22/18 A3005 RMK CI1 SLP176 DENSITY ALT 900FT
1:00 am
V
73 °F 15 mi - 150° 150° 5 kt METAR CYUL 260500Z 15005KT 15SM FEW250 23/19 A3004 RMK CI1 CI TR SLP175 DENSITY ALT 1000FT
12:00 am
V
75 °F 15 mi - 150° 150° 4 kt METAR CYUL 260400Z 15004KT 15SM FEW250 24/18 A3005 RMK CI2 SLP178 DENSITY ALT 1000FT

25. Juni 2022

Uhrzeit Code Wetter Temp. Sichtweite Wolkendecke Wind METAR/SPECI
11:00 pm
V
75 °F 15 mi - Var 000° 0 kt METAR CYUL 260300Z 00000KT 15SM FEW200 24/17 A3006 RMK CI1 SLP181 DENSITY ALT 1100FT
10:00 pm
V
75 °F 15 mi - Var Var 2 kt METAR CYUL 260200Z VRB02KT 15SM FEW200 24/17 A3007 RMK CI2 SLP183 DENSITY ALT 1100FT
9:00 pm
V
81 °F 30 mi - 160° 160° 6 kt METAR CYUL 260100Z 16006KT 30SM FEW250 27/17 A3005 RMK CI2 SLP177 DENSITY ALT 1400FT
8:00 pm
V
81 °F 30 mi 25.000 ft 180° 180° 6 kt METAR CYUL 260000Z 18006KT 30SM BKN250 27/17 A3005 RMK CI7 CC ASOCTD SLP176 DENSITY ALT 1500FT
7:00 pm
V
82 °F 30 mi 25.000 ft 200° 200° 6 kt METAR CYUL 252300Z 20006KT 30SM FEW045 OVC250 28/18 A3005 RMK CU1CI8 CU TR SLP178 DENSITY ALT 1600FT
6:00 pm
V
84 °F 30 mi 25.000 ft 180° 180° 7 kt METAR CYUL 252200Z 18007KT 30SM FEW045TCU OVC250 29/17 A3005 RMK TCU1CI8 TCU TR SLP176 DENSITY ALT 1600FT
5:00 pm
V
84 °F 30 mi 25.000 ft 200° 200° 9 kt METAR CYUL 252100Z 20009KT 30SM FEW050TCU OVC250 29/17 A3006 RMK TCU1CI8 TCU TR CS ASOCTD SLP181 DENSITY ALT 1600FT
4:00 pm
V
84 °F 30 mi 25.000 ft 200° 200° 8 kt METAR CYUL 252000Z 20008KT 180V240 30SM FEW045TCU FEW080 BKN250 29/18 A3007 RMK TCU1AC1CI7 TCU TR AC TR CS ASOCTD SLP184 DENSITY ALT 1600FT
3:00 pm
V
82 °F 30 mi - 210° 210° 8 kt METAR CYUL 251900Z 21008KT 30SM FEW040TCU FEW075 FEW250 28/18 A3007 RMK TCU1AC1CI1 TCU TR AC TR SLP185 DENSITY ALT 1600FT
2:00 pm
V
82 °F 30 mi - 240° 240° 6 kt METAR CYUL 251800Z 24006KT 190V250 30SM FEW040TCU FEW070 FEW250 28/17 A3008 RMK TCU1AC1CI1 TCU TR AC TR SLP187 DENSITY ALT 1500FT
1:00 pm
V
81 °F 30 mi - 180° 180° 5 kt METAR CYUL 251700Z 18005KT 130V210 30SM FEW035TCU FEW070 FEW250 27/19 A3008 RMK TCU1AC1CI1 TCU TR AC TR CI TR SLP187 DENSITY ALT 1400FT
12:00 pm
V
79 °F 30 mi - 190° 190° 6 kt METAR CYUL 251600Z 19006KT 150V270 30SM FEW030TCU 26/19 A3009 RMK TCU1 TCU TR TCU NW-N SLP190 DENSITY ALT 1300FT
11:00 am
V
77 °F 30 mi - 190° 190° 5 kt METAR CYUL 251500Z 19005KT 180V240 30SM FEW025TCU FEW250 25/19 A3010 RMK TCU1CI1 TCU TR CI TR TCU NW SLP194 DENSITY ALT 1200FT
Ältere Daten

Laden Sie unsere App herunter

Einfacher Zugriff auf das gesamte Flugwetter auf Ihrem Mobiltelefon und Tablet.
Mit vielen Funktionen, die auf der Website nicht verfügbar sind, wie Offline-Unterstützung und eine persönliche Flughafenliste.

Wir und Dritte verfolgen dein Internetverhalten auf unserer Website mit Cookies. Wenn du fortfährst, gehen wir davon aus, dass du mit unserer Cookie-Richtlinie einverstanden bist. Mehr erfahren